sensor_id;sensor_type;location;lat;lon;timestamp;P1;durP1;ratioP1;P2;durP2;ratioP2
23628;SDS011;11991;57.150;-2.134;2022-08-06T00:02:09;2.53;;;2.00;;
23628;SDS011;11991;57.150;-2.134;2022-08-06T00:04:37;2.92;;;2.10;;
23628;SDS011;11991;57.150;-2.134;2022-08-06T00:07:08;2.50;;;2.08;;
23628;SDS011;11991;57.150;-2.134;2022-08-06T00:09:44;2.10;;;1.90;;
23628;SDS011;11991;57.150;-2.134;2022-08-06T00:12:22;3.40;;;2.30;;
23628;SDS011;11991;57.150;-2.134;2022-08-06T00:14:56;3.28;;;2.58;;
23628;SDS011;11991;57.150;-2.134;2022-08-06T00:17:24;2.97;;;2.45;;
23628;SDS011;11991;57.150;-2.134;2022-08-06T00:19:58;3.35;;;2.70;;
23628;SDS011;11991;57.150;-2.134;2022-08-06T00:22:27;3.30;;;2.65;;
23628;SDS011;11991;57.150;-2.134;2022-08-06T00:24:55;3.58;;;2.95;;
23628;SDS011;11991;57.150;-2.134;2022-08-06T00:27:24;4.07;;;2.92;;
23628;SDS011;11991;57.150;-2.134;2022-08-06T00:30:07;3.35;;;2.42;;
23628;SDS011;11991;57.150;-2.134;2022-08-06T00:32:47;3.33;;;2.80;;
23628;SDS011;11991;57.150;-2.134;2022-08-06T00:35:21;3.97;;;2.45;;
23628;SDS011;11991;57.150;-2.134;2022-08-06T00:37:54;3.05;;;2.50;;
23628;SDS011;11991;57.150;-2.134;2022-08-06T00:40:28;3.47;;;2.92;;
23628;SDS011;11991;57.150;-2.134;2022-08-06T00:42:57;3.80;;;2.65;;
23628;SDS011;11991;57.150;-2.134;2022-08-06T00:45:31;3.13;;;2.60;;
23628;SDS011;11991;57.150;-2.134;2022-08-06T00:48:07;2.95;;;2.65;;
23628;SDS011;11991;57.150;-2.134;2022-08-06T00:50:55;4.35;;;2.85;;
23628;SDS011;11991;57.150;-2.134;2022-08-06T00:53:26;3.17;;;2.50;;
23628;SDS011;11991;57.150;-2.134;2022-08-06T00:56:00;2.92;;;2.50;;
23628;SDS011;11991;57.150;-2.134;2022-08-06T00:58:36;4.13;;;2.60;;
23628;SDS011;11991;57.150;-2.134;2022-08-06T01:01:06;4.10;;;3.03;;
23628;SDS011;11991;57.150;-2.134;2022-08-06T01:03:47;3.08;;;2.75;;
23628;SDS011;11991;57.150;-2.134;2022-08-06T01:06:16;3.58;;;2.78;;
23628;SDS011;11991;57.150;-2.134;2022-08-06T01:09:04;4.22;;;3.33;;
23628;SDS011;11991;57.150;-2.134;2022-08-06T01:11:32;3.83;;;3.25;;
23628;SDS011;11991;57.150;-2.134;2022-08-06T01:14:02;4.25;;;3.35;;
23628;SDS011;11991;57.150;-2.134;2022-08-06T01:28:20;6.00;;;4.38;;
23628;SDS011;11991;57.150;-2.134;2022-08-06T01:34:26;5.50;;;3.97;;
23628;SDS011;11991;57.150;-2.134;2022-08-06T01:37:44;4.85;;;3.78;;
23628;SDS011;11991;57.150;-2.134;2022-08-06T01:40:05;5.18;;;3.55;;
23628;SDS011;11991;57.150;-2.134;2022-08-06T01:42:54;5.13;;;4.07;;
23628;SDS011;11991;57.150;-2.134;2022-08-06T01:45:25;4.47;;;3.58;;
23628;SDS011;11991;57.150;-2.134;2022-08-06T01:48:20;5.20;;;3.88;;
23628;SDS011;11991;57.150;-2.134;2022-08-06T01:50:55;4.07;;;3.38;;
23628;SDS011;11991;57.150;-2.134;2022-08-06T01:53:27;6.18;;;4.22;;
23628;SDS011;11991;57.150;-2.134;2022-08-06T01:56:18;4.57;;;3.70;;
23628;SDS011;11991;57.150;-2.134;2022-08-06T01:59:09;4.63;;;2.97;;
23628;SDS011;11991;57.150;-2.134;2022-08-06T02:01:39;4.50;;;3.47;;
23628;SDS011;11991;57.150;-2.134;2022-08-06T02:04:21;5.43;;;3.90;;
23628;SDS011;11991;57.150;-2.134;2022-08-06T02:06:52;3.80;;;3.00;;
23628;SDS011;11991;57.150;-2.134;2022-08-06T02:09:22;4.40;;;3.30;;
23628;SDS011;11991;57.150;-2.134;2022-08-06T02:12:13;4.53;;;3.38;;
23628;SDS011;11991;57.150;-2.134;2022-08-06T02:14:51;4.65;;;3.45;;
23628;SDS011;11991;57.150;-2.134;2022-08-06T02:17:28;5.35;;;3.28;;
23628;SDS011;11991;57.150;-2.134;2022-08-06T02:20:32;2.97;;;2.28;;
23628;SDS011;11991;57.150;-2.134;2022-08-06T02:23:07;4.03;;;3.42;;
23628;SDS011;11991;57.150;-2.134;2022-08-06T02:25:39;2.97;;;2.33;;
23628;SDS011;11991;57.150;-2.134;2022-08-06T02:28:09;3.67;;;2.85;;
23628;SDS011;11991;57.150;-2.134;2022-08-06T02:30:51;4.65;;;3.08;;
23628;SDS011;11991;57.150;-2.134;2022-08-06T02:33:20;3.65;;;2.92;;
23628;SDS011;11991;57.150;-2.134;2022-08-06T02:38:58;4.53;;;3.50;;
23628;SDS011;11991;57.150;-2.134;2022-08-06T02:44:36;4.00;;;2.45;;
23628;SDS011;11991;57.150;-2.134;2022-08-06T02:47:22;3.65;;;3.00;;
23628;SDS011;11991;57.150;-2.134;2022-08-06T02:50:23;4.93;;;3.65;;
23628;SDS011;11991;57.150;-2.134;2022-08-06T02:53:03;5.32;;;3.85;;
23628;SDS011;11991;57.150;-2.134;2022-08-06T02:56:02;3.33;;;2.90;;
23628;SDS011;11991;57.150;-2.134;2022-08-06T02:58:42;4.00;;;3.13;;
23628;SDS011;11991;57.150;-2.134;2022-08-06T03:01:34;4.15;;;3.17;;
23628;SDS011;11991;57.150;-2.134;2022-08-06T03:04:09;4.32;;;3.28;;
23628;SDS011;11991;57.150;-2.134;2022-08-06T03:06:41;5.00;;;4.10;;
23628;SDS011;11991;57.150;-2.134;2022-08-06T03:09:11;5.28;;;4.10;;
23628;SDS011;11991;57.150;-2.134;2022-08-06T03:11:42;4.75;;;3.80;;
23628;SDS011;11991;57.150;-2.134;2022-08-06T03:14:14;4.82;;;3.55;;
23628;SDS011;11991;57.150;-2.134;2022-08-06T03:17:03;4.15;;;3.38;;
23628;SDS011;11991;57.150;-2.134;2022-08-06T03:19:33;3.55;;;2.97;;
23628;SDS011;11991;57.150;-2.134;2022-08-06T03:22:21;3.88;;;2.95;;
23628;SDS011;11991;57.150;-2.134;2022-08-06T03:25:10;3.38;;;2.65;;
23628;SDS011;11991;57.150;-2.134;2022-08-06T03:27:40;3.33;;;2.72;;
23628;SDS011;11991;57.150;-2.134;2022-08-06T03:30:14;5.03;;;3.72;;
23628;SDS011;11991;57.150;-2.134;2022-08-06T03:33:04;3.50;;;2.67;;
23628;SDS011;11991;57.150;-2.134;2022-08-06T03:35:56;3.13;;;2.55;;
23628;SDS011;11991;57.150;-2.134;2022-08-06T03:38:27;4.40;;;3.35;;
23628;SDS011;11991;57.150;-2.134;2022-08-06T03:40:59;3.85;;;2.92;;
23628;SDS011;11991;57.150;-2.134;2022-08-06T03:43:28;5.30;;;4.13;;
23628;SDS011;11991;57.150;-2.134;2022-08-06T03:46:18;4.00;;;3.40;;
23628;SDS011;11991;57.150;-2.134;2022-08-06T03:48:53;5.20;;;3.50;;
23628;SDS011;11991;57.150;-2.134;2022-08-06T03:51:23;3.38;;;2.88;;
23628;SDS011;11991;57.150;-2.134;2022-08-06T03:54:15;5.07;;;3.70;;
23628;SDS011;11991;57.150;-2.134;2022-08-06T03:57:00;4.63;;;3.25;;
23628;SDS011;11991;57.150;-2.134;2022-08-06T03:59:36;3.85;;;3.00;;
23628;SDS011;11991;57.150;-2.134;2022-08-06T04:02:26;3.40;;;2.80;;
23628;SDS011;11991;57.150;-2.134;2022-08-06T04:05:20;4.70;;;3.33;;
23628;SDS011;11991;57.150;-2.134;2022-08-06T04:07:50;4.70;;;3.17;;
23628;SDS011;11991;57.150;-2.134;2022-08-06T04:10:23;4.72;;;3.83;;
23628;SDS011;11991;57.150;-2.134;2022-08-06T04:13:04;3.63;;;2.80;;
23628;SDS011;11991;57.150;-2.134;2022-08-06T04:15:55;4.60;;;3.58;;
23628;SDS011;11991;57.150;-2.134;2022-08-06T04:18:28;4.28;;;3.58;;
23628;SDS011;11991;57.150;-2.134;2022-08-06T04:21:20;5.28;;;3.72;;
23628;SDS011;11991;57.150;-2.134;2022-08-06T04:24:09;4.80;;;3.45;;
23628;SDS011;11991;57.150;-2.134;2022-08-06T04:26:38;4.55;;;3.30;;
23628;SDS011;11991;57.150;-2.134;2022-08-06T04:29:07;5.72;;;3.60;;
23628;SDS011;11991;57.150;-2.134;2022-08-06T04:31:43;3.30;;;2.58;;
23628;SDS011;11991;57.150;-2.134;2022-08-06T04:34:33;3.42;;;2.75;;
23628;SDS011;11991;57.150;-2.134;2022-08-06T04:37:21;3.25;;;2.47;;
23628;SDS011;11991;57.150;-2.134;2022-08-06T04:39:50;3.72;;;2.83;;
23628;SDS011;11991;57.150;-2.134;2022-08-06T04:42:18;3.50;;;3.08;;
23628;SDS011;11991;57.150;-2.134;2022-08-06T04:44:46;3.95;;;3.40;;
23628;SDS011;11991;57.150;-2.134;2022-08-06T04:47:26;4.80;;;3.60;;
23628;SDS011;11991;57.150;-2.134;2022-08-06T04:50:12;4.47;;;3.47;;
23628;SDS011;11991;57.150;-2.134;2022-08-06T04:52:48;4.85;;;3.83;;
23628;SDS011;11991;57.150;-2.134;2022-08-06T04:55:19;4.97;;;3.92;;
23628;SDS011;11991;57.150;-2.134;2022-08-06T04:57:51;4.93;;;3.80;;
23628;SDS011;11991;57.150;-2.134;2022-08-06T05:00:28;5.82;;;3.42;;
23628;SDS011;11991;57.150;-2.134;2022-08-06T05:03:20;4.68;;;3.70;;
23628;SDS011;11991;57.150;-2.134;2022-08-06T05:09:20;4.63;;;3.58;;
23628;SDS011;11991;57.150;-2.134;2022-08-06T05:12:19;4.22;;;3.13;;
23628;SDS011;11991;57.150;-2.134;2022-08-06T05:14:53;4.13;;;3.38;;
23628;SDS011;11991;57.150;-2.134;2022-08-06T05:17:29;5.88;;;3.40;;
23628;SDS011;11991;57.150;-2.134;2022-08-06T05:20:16;4.38;;;3.10;;
23628;SDS011;11991;57.150;-2.134;2022-08-06T05:22:59;4.32;;;3.22;;
23628;SDS011;11991;57.150;-2.134;2022-08-06T05:25:46;3.97;;;3.33;;
23628;SDS011;11991;57.150;-2.134;2022-08-06T05:28:22;4.03;;;3.30;;
23628;SDS011;11991;57.150;-2.134;2022-08-06T05:30:53;4.38;;;3.47;;
23628;SDS011;11991;57.150;-2.134;2022-08-06T05:35:56;3.25;;;2.92;;
23628;SDS011;11991;57.150;-2.134;2022-08-06T05:38:32;4.43;;;3.10;;
23628;SDS011;11991;57.150;-2.134;2022-08-06T05:41:03;4.88;;;3.38;;
23628;SDS011;11991;57.150;-2.134;2022-08-06T05:43:36;4.25;;;3.28;;
23628;SDS011;11991;57.150;-2.134;2022-08-06T05:46:24;3.72;;;3.03;;
23628;SDS011;11991;57.150;-2.134;2022-08-06T05:51:56;3.88;;;2.85;;
23628;SDS011;11991;57.150;-2.134;2022-08-06T05:54:33;4.10;;;2.75;;
23628;SDS011;11991;57.150;-2.134;2022-08-06T06:00:08;3.30;;;2.55;;
23628;SDS011;11991;57.150;-2.134;2022-08-06T06:02:59;3.80;;;3.03;;
23628;SDS011;11991;57.150;-2.134;2022-08-06T06:05:30;4.10;;;3.00;;
23628;SDS011;11991;57.150;-2.134;2022-08-06T06:08:18;3.90;;;3.25;;
23628;SDS011;11991;57.150;-2.134;2022-08-06T06:11:06;3.65;;;2.47;;
23628;SDS011;11991;57.150;-2.134;2022-08-06T06:13:36;4.18;;;2.90;;
23628;SDS011;11991;57.150;-2.134;2022-08-06T06:23:26;5.40;;;3.85;;
23628;SDS011;11991;57.150;-2.134;2022-08-06T06:26:23;3.53;;;2.45;;
23628;SDS011;11991;57.150;-2.134;2022-08-06T06:29:24;2.75;;;2.35;;
23628;SDS011;11991;57.150;-2.134;2022-08-06T06:43:23;4.10;;;2.50;;
23628;SDS011;11991;57.150;-2.134;2022-08-06T06:46:21;3.15;;;2.35;;
23628;SDS011;11991;57.150;-2.134;2022-08-06T06:49:11;2.15;;;1.85;;
23628;SDS011;11991;57.150;-2.134;2022-08-06T06:52:10;2.45;;;2.05;;
23628;SDS011;11991;57.150;-2.134;2022-08-06T06:55:01;2.42;;;1.98;;
23628;SDS011;11991;57.150;-2.134;2022-08-06T06:57:46;2.72;;;1.98;;
23628;SDS011;11991;57.150;-2.134;2022-08-06T07:00:18;3.97;;;2.70;;
23628;SDS011;11991;57.150;-2.134;2022-08-06T07:03:05;2.85;;;2.33;;
23628;SDS011;11991;57.150;-2.134;2022-08-06T07:05:37;3.58;;;2.10;;
23628;SDS011;11991;57.150;-2.134;2022-08-06T07:08:28;2.75;;;2.38;;
23628;SDS011;11991;57.150;-2.134;2022-08-06T07:11:08;2.45;;;2.22;;
23628;SDS011;11991;57.150;-2.134;2022-08-06T07:13:38;3.65;;;2.85;;
23628;SDS011;11991;57.150;-2.134;2022-08-06T07:16:21;3.13;;;2.83;;
23628;SDS011;11991;57.150;-2.134;2022-08-06T07:19:03;2.58;;;2.38;;
23628;SDS011;11991;57.150;-2.134;2022-08-06T07:21:38;2.92;;;2.33;;
23628;SDS011;11991;57.150;-2.134;2022-08-06T07:24:08;3.13;;;2.30;;
23628;SDS011;11991;57.150;-2.134;2022-08-06T07:26:59;2.25;;;2.00;;
23628;SDS011;11991;57.150;-2.134;2022-08-06T07:29:28;3.47;;;2.53;;
23628;SDS011;11991;57.150;-2.134;2022-08-06T07:32:15;2.30;;;2.10;;
23628;SDS011;11991;57.150;-2.134;2022-08-06T07:34:59;2.60;;;2.15;;
23628;SDS011;11991;57.150;-2.134;2022-08-06T07:37:40;2.33;;;2.13;;
23628;SDS011;11991;57.150;-2.134;2022-08-06T07:40:15;2.38;;;1.98;;
23628;SDS011;11991;57.150;-2.134;2022-08-06T07:42:50;1.83;;;1.63;;
23628;SDS011;11991;57.150;-2.134;2022-08-06T07:45:21;2.65;;;2.22;;
23628;SDS011;11991;57.150;-2.134;2022-08-06T07:48:10;2.67;;;2.05;;
23628;SDS011;11991;57.150;-2.134;2022-08-06T07:50:44;2.25;;;1.85;;
23628;SDS011;11991;57.150;-2.134;2022-08-06T07:53:17;2.38;;;1.92;;
23628;SDS011;11991;57.150;-2.134;2022-08-06T07:56:06;2.70;;;1.95;;
23628;SDS011;11991;57.150;-2.134;2022-08-06T07:58:37;1.95;;;1.70;;
23628;SDS011;11991;57.150;-2.134;2022-08-06T08:01:11;2.00;;;1.80;;
23628;SDS011;11991;57.150;-2.134;2022-08-06T08:03:44;2.38;;;2.10;;
23628;SDS011;11991;57.150;-2.134;2022-08-06T08:06:55;2.40;;;1.88;;
23628;SDS011;11991;57.150;-2.134;2022-08-06T08:09:26;2.38;;;1.95;;
23628;SDS011;11991;57.150;-2.134;2022-08-06T08:12:16;2.55;;;1.73;;
23628;SDS011;11991;57.150;-2.134;2022-08-06T08:15:05;2.50;;;1.85;;
23628;SDS011;11991;57.150;-2.134;2022-08-06T08:17:48;1.90;;;1.70;;
23628;SDS011;11991;57.150;-2.134;2022-08-06T08:20:24;2.45;;;2.00;;
23628;SDS011;11991;57.150;-2.134;2022-08-06T08:22:59;1.88;;;1.60;;
23628;SDS011;11991;57.150;-2.134;2022-08-06T08:25:27;1.60;;;1.42;;
23628;SDS011;11991;57.150;-2.134;2022-08-06T08:28:07;1.60;;;1.40;;
23628;SDS011;11991;57.150;-2.134;2022-08-06T08:30:42;1.70;;;1.40;;
23628;SDS011;11991;57.150;-2.134;2022-08-06T08:33:19;1.65;;;1.35;;
23628;SDS011;11991;57.150;-2.134;2022-08-06T08:35:48;1.83;;;1.05;;
23628;SDS011;11991;57.150;-2.134;2022-08-06T08:38:28;2.13;;;1.48;;
23628;SDS011;11991;57.150;-2.134;2022-08-06T08:40:59;1.40;;;1.30;;
23628;SDS011;11991;57.150;-2.134;2022-08-06T08:43:36;1.48;;;1.30;;
23628;SDS011;11991;57.150;-2.134;2022-08-06T08:46:26;1.20;;;1.10;;
23628;SDS011;11991;57.150;-2.134;2022-08-06T08:49:01;1.30;;;1.00;;
23628;SDS011;11991;57.150;-2.134;2022-08-06T08:51:33;1.70;;;1.45;;
23628;SDS011;11991;57.150;-2.134;2022-08-06T08:54:09;1.40;;;1.30;;
23628;SDS011;11991;57.150;-2.134;2022-08-06T08:56:45;1.48;;;1.35;;
23628;SDS011;11991;57.150;-2.134;2022-08-06T08:59:34;1.33;;;1.10;;
23628;SDS011;11991;57.150;-2.134;2022-08-06T09:02:23;1.52;;;1.25;;
23628;SDS011;11991;57.150;-2.134;2022-08-06T09:04:52;1.52;;;1.20;;
23628;SDS011;11991;57.150;-2.134;2022-08-06T09:07:25;1.52;;;1.08;;
23628;SDS011;11991;57.150;-2.134;2022-08-06T09:10:06;1.30;;;1.20;;
23628;SDS011;11991;57.150;-2.134;2022-08-06T09:12:41;1.73;;;1.20;;
23628;SDS011;11991;57.150;-2.134;2022-08-06T09:15:14;1.35;;;1.25;;
23628;SDS011;11991;57.150;-2.134;2022-08-06T09:17:49;1.95;;;1.52;;
23628;SDS011;11991;57.150;-2.134;2022-08-06T09:20:36;1.73;;;1.60;;
23628;SDS011;11991;57.150;-2.134;2022-08-06T09:23:12;1.10;;;1.00;;
23628;SDS011;11991;57.150;-2.134;2022-08-06T09:25:48;1.90;;;1.70;;
23628;SDS011;11991;57.150;-2.134;2022-08-06T09:31:11;1.15;;;1.05;;
23628;SDS011;11991;57.150;-2.134;2022-08-06T09:34:00;1.30;;;1.20;;
23628;SDS011;11991;57.150;-2.134;2022-08-06T09:36:50;0.80;;;0.80;;
23628;SDS011;11991;57.150;-2.134;2022-08-06T09:39:35;1.40;;;1.00;;
23628;SDS011;11991;57.150;-2.134;2022-08-06T09:42:42;1.13;;;1.02;;
23628;SDS011;11991;57.150;-2.134;2022-08-06T09:45:14;1.02;;;0.93;;
23628;SDS011;11991;57.150;-2.134;2022-08-06T09:47:49;1.45;;;1.30;;
23628;SDS011;11991;57.150;-2.134;2022-08-06T09:50:47;1.58;;;1.10;;
23628;SDS011;11991;57.150;-2.134;2022-08-06T09:53:17;1.42;;;1.10;;
23628;SDS011;11991;57.150;-2.134;2022-08-06T09:55:48;1.50;;;1.40;;
23628;SDS011;11991;57.150;-2.134;2022-08-06T09:58:29;1.88;;;1.13;;
23628;SDS011;11991;57.150;-2.134;2022-08-06T10:01:17;2.05;;;1.30;;
23628;SDS011;11991;57.150;-2.134;2022-08-06T10:03:53;2.13;;;1.23;;
23628;SDS011;11991;57.150;-2.134;2022-08-06T10:06:32;1.65;;;1.15;;
23628;SDS011;11991;57.150;-2.134;2022-08-06T10:09:09;2.10;;;1.35;;
23628;SDS011;11991;57.150;-2.134;2022-08-06T10:11:58;1.15;;;1.05;;
23628;SDS011;11991;57.150;-2.134;2022-08-06T10:14:26;1.67;;;1.08;;
23628;SDS011;11991;57.150;-2.134;2022-08-06T10:19:43;1.13;;;1.02;;
23628;SDS011;11991;57.150;-2.134;2022-08-06T10:22:18;1.13;;;0.80;;
23628;SDS011;11991;57.150;-2.134;2022-08-06T10:24:51;1.38;;;1.08;;
23628;SDS011;11991;57.150;-2.134;2022-08-06T10:27:25;0.85;;;0.85;;
23628;SDS011;11991;57.150;-2.134;2022-08-06T10:30:05;0.75;;;0.70;;
23628;SDS011;11991;57.150;-2.134;2022-08-06T10:35:14;1.20;;;0.93;;
23628;SDS011;11991;57.150;-2.134;2022-08-06T10:37:51;0.80;;;0.80;;
23628;SDS011;11991;57.150;-2.134;2022-08-06T10:40:23;0.70;;;0.70;;
23628;SDS011;11991;57.150;-2.134;2022-08-06T10:42:57;1.33;;;0.98;;
23628;SDS011;11991;57.150;-2.134;2022-08-06T10:45:29;1.15;;;0.95;;
23628;SDS011;11991;57.150;-2.134;2022-08-06T10:48:16;1.13;;;0.75;;
23628;SDS011;11991;57.150;-2.134;2022-08-06T10:51:04;1.20;;;0.98;;
23628;SDS011;11991;57.150;-2.134;2022-08-06T10:53:34;0.90;;;0.77;;
23628;SDS011;11991;57.150;-2.134;2022-08-06T10:56:23;0.60;;;0.60;;
23628;SDS011;11991;57.150;-2.134;2022-08-06T10:59:02;1.00;;;0.70;;
23628;SDS011;11991;57.150;-2.134;2022-08-06T11:01:36;1.05;;;0.80;;
23628;SDS011;11991;57.150;-2.134;2022-08-06T11:10:18;0.90;;;0.80;;
23628;SDS011;11991;57.150;-2.134;2022-08-06T11:13:14;0.80;;;0.80;;
23628;SDS011;11991;57.150;-2.134;2022-08-06T11:16:03;1.00;;;0.82;;
23628;SDS011;11991;57.150;-2.134;2022-08-06T11:18:31;2.70;;;1.73;;
23628;SDS011;11991;57.150;-2.134;2022-08-06T11:21:06;0.70;;;0.70;;
23628;SDS011;11991;57.150;-2.134;2022-08-06T11:23:33;1.00;;;0.82;;
23628;SDS011;11991;57.150;-2.134;2022-08-06T11:26:34;0.77;;;0.73;;
23628;SDS011;11991;57.150;-2.134;2022-08-06T11:29:13;0.90;;;0.70;;
23628;SDS011;11991;57.150;-2.134;2022-08-06T11:31:45;1.02;;;0.73;;
23628;SDS011;11991;57.150;-2.134;2022-08-06T11:34:39;0.60;;;0.60;;
23628;SDS011;11991;57.150;-2.134;2022-08-06T11:46:37;0.80;;;0.60;;
23628;SDS011;11991;57.150;-2.134;2022-08-06T11:51:48;0.80;;;0.70;;
23628;SDS011;11991;57.150;-2.134;2022-08-06T11:54:35;1.08;;;0.70;;
23628;SDS011;11991;57.150;-2.134;2022-08-06T11:57:24;0.60;;;0.50;;
23628;SDS011;11991;57.150;-2.134;2022-08-06T12:00:08;0.50;;;0.50;;
23628;SDS011;11991;57.150;-2.134;2022-08-06T12:07:46;0.50;;;0.50;;
23628;SDS011;11991;57.150;-2.134;2022-08-06T12:10:39;0.50;;;0.40;;
23628;SDS011;11991;57.150;-2.134;2022-08-06T12:13:49;0.65;;;0.55;;
23628;SDS011;11991;57.150;-2.134;2022-08-06T12:16:27;1.02;;;0.68;;
23628;SDS011;11991;57.150;-2.134;2022-08-06T12:18:57;1.85;;;0.60;;
23628;SDS011;11991;57.150;-2.134;2022-08-06T12:21:25;0.40;;;0.40;;
23628;SDS011;11991;57.150;-2.134;2022-08-06T12:24:03;0.93;;;0.70;;
23628;SDS011;11991;57.150;-2.134;2022-08-06T12:26:33;0.63;;;0.63;;
23628;SDS011;11991;57.150;-2.134;2022-08-06T12:29:02;0.60;;;0.60;;
23628;SDS011;11991;57.150;-2.134;2022-08-06T12:31:33;1.25;;;0.70;;
23628;SDS011;11991;57.150;-2.134;2022-08-06T12:34:23;1.13;;;0.70;;
23628;SDS011;11991;57.150;-2.134;2022-08-06T12:36:53;0.60;;;0.60;;
23628;SDS011;11991;57.150;-2.134;2022-08-06T12:39:22;0.50;;;0.50;;
23628;SDS011;11991;57.150;-2.134;2022-08-06T12:42:23;0.85;;;0.75;;
23628;SDS011;11991;57.150;-2.134;2022-08-06T12:45:11;0.60;;;0.60;;
23628;SDS011;11991;57.150;-2.134;2022-08-06T12:48:04;0.65;;;0.50;;
23628;SDS011;11991;57.150;-2.134;2022-08-06T12:50:38;0.65;;;0.65;;
23628;SDS011;11991;57.150;-2.134;2022-08-06T12:53:12;0.95;;;0.70;;
23628;SDS011;11991;57.150;-2.134;2022-08-06T12:55:47;0.60;;;0.60;;
23628;SDS011;11991;57.150;-2.134;2022-08-06T12:58:35;0.50;;;0.50;;
23628;SDS011;11991;57.150;-2.134;2022-08-06T13:01:11;0.75;;;0.50;;
23628;SDS011;11991;57.150;-2.134;2022-08-06T13:04:01;0.73;;;0.63;;
23628;SDS011;11991;57.150;-2.134;2022-08-06T13:06:34;0.60;;;0.60;;
23628;SDS011;11991;57.150;-2.134;2022-08-06T13:09:06;0.73;;;0.50;;
23628;SDS011;11991;57.150;-2.134;2022-08-06T13:11:36;0.47;;;0.47;;
23628;SDS011;11991;57.150;-2.134;2022-08-06T13:14:08;0.50;;;0.50;;
23628;SDS011;11991;57.150;-2.134;2022-08-06T13:16:44;0.65;;;0.45;;
23628;SDS011;11991;57.150;-2.134;2022-08-06T13:19:22;0.50;;;0.40;;
23628;SDS011;11991;57.150;-2.134;2022-08-06T13:22:04;0.50;;;0.50;;
23628;SDS011;11991;57.150;-2.134;2022-08-06T13:24:44;0.70;;;0.70;;
23628;SDS011;11991;57.150;-2.134;2022-08-06T13:27:32;0.57;;;0.45;;
23628;SDS011;11991;57.150;-2.134;2022-08-06T13:30:02;0.77;;;0.68;;
23628;SDS011;11991;57.150;-2.134;2022-08-06T13:32:53;0.50;;;0.50;;
23628;SDS011;11991;57.150;-2.134;2022-08-06T13:35:27;0.40;;;0.40;;
23628;SDS011;11991;57.150;-2.134;2022-08-06T13:37:58;0.60;;;0.60;;
23628;SDS011;11991;57.150;-2.134;2022-08-06T13:40:43;0.70;;;0.55;;
23628;SDS011;11991;57.150;-2.134;2022-08-06T13:43:36;0.55;;;0.50;;
23628;SDS011;11991;57.150;-2.134;2022-08-06T13:46:20;0.57;;;0.50;;
23628;SDS011;11991;57.150;-2.134;2022-08-06T13:48:55;0.75;;;0.50;;
23628;SDS011;11991;57.150;-2.134;2022-08-06T13:51:28;0.60;;;0.60;;
23628;SDS011;11991;57.150;-2.134;2022-08-06T13:54:02;0.50;;;0.40;;
23628;SDS011;11991;57.150;-2.134;2022-08-06T13:56:47;0.80;;;0.60;;
23628;SDS011;11991;57.150;-2.134;2022-08-06T13:59:17;0.80;;;0.77;;
23628;SDS011;11991;57.150;-2.134;2022-08-06T14:02:06;0.90;;;0.50;;
23628;SDS011;11991;57.150;-2.134;2022-08-06T14:04:36;0.75;;;0.68;;
23628;SDS011;11991;57.150;-2.134;2022-08-06T14:07:04;0.50;;;0.50;;
23628;SDS011;11991;57.150;-2.134;2022-08-06T14:09:31;1.40;;;0.73;;
23628;SDS011;11991;57.150;-2.134;2022-08-06T14:12:18;0.82;;;0.70;;
23628;SDS011;11991;57.150;-2.134;2022-08-06T14:14:46;0.60;;;0.50;;
23628;SDS011;11991;57.150;-2.134;2022-08-06T14:17:15;0.60;;;0.50;;
23628;SDS011;11991;57.150;-2.134;2022-08-06T14:19:45;0.90;;;0.60;;
23628;SDS011;11991;57.150;-2.134;2022-08-06T14:22:47;1.52;;;0.85;;
23628;SDS011;11991;57.150;-2.134;2022-08-06T14:25:15;0.60;;;0.60;;
23628;SDS011;11991;57.150;-2.134;2022-08-06T14:27:43;1.85;;;0.88;;
23628;SDS011;11991;57.150;-2.134;2022-08-06T14:30:11;1.10;;;0.90;;
23628;SDS011;11991;57.150;-2.134;2022-08-06T14:33:00;1.20;;;1.10;;
23628;SDS011;11991;57.150;-2.134;2022-08-06T14:35:48;0.82;;;0.80;;
23628;SDS011;11991;57.150;-2.134;2022-08-06T14:38:18;1.45;;;0.80;;
23628;SDS011;11991;57.150;-2.134;2022-08-06T14:40:47;1.60;;;1.00;;
23628;SDS011;11991;57.150;-2.134;2022-08-06T14:43:36;2.13;;;0.90;;
23628;SDS011;11991;57.150;-2.134;2022-08-06T14:46:26;1.67;;;1.35;;
23628;SDS011;11991;57.150;-2.134;2022-08-06T14:48:59;2.15;;;1.23;;
23628;SDS011;11991;57.150;-2.134;2022-08-06T14:51:38;0.70;;;0.70;;
23628;SDS011;11991;57.150;-2.134;2022-08-06T14:54:26;0.70;;;0.65;;
23628;SDS011;11991;57.150;-2.134;2022-08-06T14:56:58;0.85;;;0.68;;
23628;SDS011;11991;57.150;-2.134;2022-08-06T14:59:28;1.00;;;0.70;;
23628;SDS011;11991;57.150;-2.134;2022-08-06T15:02:08;1.20;;;0.80;;
23628;SDS011;11991;57.150;-2.134;2022-08-06T15:04:36;1.10;;;0.80;;
23628;SDS011;11991;57.150;-2.134;2022-08-06T15:07:03;1.83;;;0.93;;
23628;SDS011;11991;57.150;-2.134;2022-08-06T15:09:33;1.08;;;0.90;;
23628;SDS011;11991;57.150;-2.134;2022-08-06T15:12:20;1.50;;;1.20;;
23628;SDS011;11991;57.150;-2.134;2022-08-06T15:15:08;0.85;;;0.77;;
23628;SDS011;11991;57.150;-2.134;2022-08-06T15:17:39;0.85;;;0.80;;
23628;SDS011;11991;57.150;-2.134;2022-08-06T15:20:27;1.33;;;0.85;;
23628;SDS011;11991;57.150;-2.134;2022-08-06T15:22:55;2.53;;;1.50;;
23628;SDS011;11991;57.150;-2.134;2022-08-06T15:25:31;2.25;;;1.20;;
23628;SDS011;11991;57.150;-2.134;2022-08-06T15:28:21;1.30;;;0.80;;
23628;SDS011;11991;57.150;-2.134;2022-08-06T15:30:49;1.23;;;0.73;;
23628;SDS011;11991;57.150;-2.134;2022-08-06T15:33:16;1.23;;;0.82;;
23628;SDS011;11991;57.150;-2.134;2022-08-06T15:35:47;0.88;;;0.77;;
23628;SDS011;11991;57.150;-2.134;2022-08-06T15:38:24;0.70;;;0.60;;
23628;SDS011;11991;57.150;-2.134;2022-08-06T15:40:58;1.05;;;0.70;;
23628;SDS011;11991;57.150;-2.134;2022-08-06T15:43:27;1.10;;;0.80;;
23628;SDS011;11991;57.150;-2.134;2022-08-06T15:46:11;0.50;;;0.50;;
23628;SDS011;11991;57.150;-2.134;2022-08-06T15:48:54;0.75;;;0.60;;
23628;SDS011;11991;57.150;-2.134;2022-08-06T15:51:25;0.93;;;0.70;;
23628;SDS011;11991;57.150;-2.134;2022-08-06T15:53:57;1.67;;;1.00;;
23628;SDS011;11991;57.150;-2.134;2022-08-06T15:56:26;1.17;;;0.60;;
23628;SDS011;11991;57.150;-2.134;2022-08-06T15:59:16;0.80;;;0.80;;
23628;SDS011;11991;57.150;-2.134;2022-08-06T16:01:46;1.63;;;0.90;;
23628;SDS011;11991;57.150;-2.134;2022-08-06T16:04:20;0.90;;;0.50;;
23628;SDS011;11991;57.150;-2.134;2022-08-06T16:06:49;0.80;;;0.70;;
23628;SDS011;11991;57.150;-2.134;2022-08-06T16:09:16;1.42;;;0.95;;
23628;SDS011;11991;57.150;-2.134;2022-08-06T16:11:57;1.83;;;1.30;;
23628;SDS011;11991;57.150;-2.134;2022-08-06T16:17:22;0.80;;;0.80;;
23628;SDS011;11991;57.150;-2.134;2022-08-06T16:20:10;2.00;;;1.13;;
23628;SDS011;11991;57.150;-2.134;2022-08-06T16:22:48;1.70;;;1.00;;
23628;SDS011;11991;57.150;-2.134;2022-08-06T16:25:18;1.30;;;0.90;;
23628;SDS011;11991;57.150;-2.134;2022-08-06T16:27:48;1.42;;;0.80;;
23628;SDS011;11991;57.150;-2.134;2022-08-06T16:30:18;1.10;;;0.80;;
23628;SDS011;11991;57.150;-2.134;2022-08-06T16:32:46;1.40;;;0.68;;
23628;SDS011;11991;57.150;-2.134;2022-08-06T16:35:16;0.70;;;0.60;;
23628;SDS011;11991;57.150;-2.134;2022-08-06T16:37:48;1.58;;;0.80;;
23628;SDS011;11991;57.150;-2.134;2022-08-06T16:40:21;1.40;;;0.70;;
23628;SDS011;11991;57.150;-2.134;2022-08-06T16:42:50;0.93;;;0.90;;
23628;SDS011;11991;57.150;-2.134;2022-08-06T16:45:19;0.88;;;0.80;;
23628;SDS011;11991;57.150;-2.134;2022-08-06T16:47:49;0.90;;;0.70;;
23628;SDS011;11991;57.150;-2.134;2022-08-06T16:50:38;0.60;;;0.60;;
23628;SDS011;11991;57.150;-2.134;2022-08-06T16:53:06;0.82;;;0.70;;
23628;SDS011;11991;57.150;-2.134;2022-08-06T16:55:54;0.60;;;0.60;;
23628;SDS011;11991;57.150;-2.134;2022-08-06T16:58:22;0.60;;;0.60;;
23628;SDS011;11991;57.150;-2.134;2022-08-06T17:01:05;0.60;;;0.60;;
23628;SDS011;11991;57.150;-2.134;2022-08-06T17:03:53;1.15;;;0.70;;
23628;SDS011;11991;57.150;-2.134;2022-08-06T17:06:29;2.00;;;1.30;;